Time;durP1;ratioP1;P1;durP2;ratioP2;P2;SDS_P1;SDS_P2;PMS_P1;PMS_P2;Temp;Humidity;BMP_temperature;BMP_pressure;BME280_temperature;BME280_humidity;BME280_pressure;Samples;Min_cycle;Max_cycle;Signal;HPM_P1;HPM_P2
2021/10/18 00:02:09;;;;;;;26.23;15.52;;;;;;;;;;5028391;28;20074;-63
2021/10/18 00:04:35;;;;;;;26.70;14.80;;;;;;;;;;5027331;28;20373;-64
2021/10/18 00:07:01;;;;;;;24.23;14.93;;;;;;;;;;5020302;28;20056;-64
2021/10/18 00:09:28;;;;;;;26.10;14.63;;;;;;;;;;5030653;28;20050;-65
2021/10/18 00:11:55;;;;;;;32.08;15.20;;;;;;;;;;5029016;28;20534;-64
2021/10/18 00:14:21;;;;;;;26.30;14.10;;;;;;;;;;5030404;28;20056;-64
2021/10/18 00:16:47;;;;;;;26.50;14.98;;;;;;;;;;5019866;28;20049;-64
2021/10/18 00:19:14;;;;;;;25.63;15.25;;;;;;;;;;5033932;28;20045;-64
2021/10/18 00:21:40;;;;;;;27.38;15.20;;;;;;;;;;5017904;28;20064;-64
2021/10/18 00:24:06;;;;;;;26.63;14.88;;;;;;;;;;5036368;28;20425;-64
2021/10/18 00:26:33;;;;;;;26.77;14.25;;;;;;;;;;5025942;28;20061;-63
2021/10/18 00:29:00;;;;;;;24.35;14.40;;;;;;;;;;5038471;28;20044;-63
2021/10/18 00:31:26;;;;;;;29.83;15.80;;;;;;;;;;5012337;28;20486;-63
2021/10/18 00:33:53;;;;;;;25.48;14.63;;;;;;;;;;5032243;28;20049;-64
2021/10/18 00:36:19;;;;;;;25.50;14.40;;;;;;;;;;5024694;28;20053;-64
2021/10/18 00:38:45;;;;;;;22.63;14.63;;;;;;;;;;5027989;28;20052;-64
2021/10/18 00:41:12;;;;;;;26.50;13.75;;;;;;;;;;5028876;28;20056;-64
2021/10/18 00:43:43;;;;;;;25.90;15.25;;;;;;;;;;5028731;28;20053;-64
2021/10/18 00:46:09;;;;;;;25.33;14.10;;;;;;;;;;5021916;28;20045;-63
2021/10/18 00:48:36;;;;;;;26.55;14.93;;;;;;;;;;5026168;28;20518;-64
2021/10/18 00:51:02;;;;;;;30.15;15.60;;;;;;;;;;5030312;28;20053;-64
2021/10/18 00:53:28;;;;;;;29.90;14.60;;;;;;;;;;5027213;28;20057;-63
2021/10/18 00:55:55;;;;;;;26.38;15.40;;;;;;;;;;5026835;28;20057;-64
2021/10/18 00:58:22;;;;;;;27.75;14.82;;;;;;;;;;5028620;28;20550;-64
2021/10/18 01:00:49;;;;;;;23.55;14.27;;;;;;;;;;5018076;28;20144;-64
2021/10/18 01:03:16;;;;;;;26.30;15.30;;;;;;;;;;5028488;28;20470;-66
2021/10/18 01:05:43;;;;;;;25.20;15.65;;;;;;;;;;5012291;28;20054;-64
2021/10/18 01:08:09;;;;;;;26.20;16.25;;;;;;;;;;5031439;28;20671;-64
2021/10/18 01:10:36;;;;;;;25.98;14.38;;;;;;;;;;5025976;28;20073;-63
2021/10/18 01:13:03;;;;;;;27.63;15.35;;;;;;;;;;5032184;28;20060;-64
2021/10/18 01:15:30;;;;;;;24.60;15.35;;;;;;;;;;5026382;28;20144;-64
2021/10/18 01:17:56;;;;;;;25.08;15.68;;;;;;;;;;5020887;28;20389;-64
2021/10/18 01:20:29;;;;;;;26.58;15.13;;;;;;;;;;5031704;28;20436;-64
2021/10/18 01:22:56;;;;;;;28.38;14.98;;;;;;;;;;5021720;28;20143;-64
2021/10/18 01:25:22;;;;;;;26.90;16.90;;;;;;;;;;5031931;28;20073;-65
2021/10/18 01:27:49;;;;;;;28.25;16.65;;;;;;;;;;5031958;28;20060;-64
2021/10/18 01:30:16;;;;;;;27.90;16.15;;;;;;;;;;5024817;28;20056;-64
2021/10/18 01:32:43;;;;;;;28.85;16.50;;;;;;;;;;5031196;28;20072;-64
2021/10/18 01:35:10;;;;;;;32.17;16.33;;;;;;;;;;5021394;28;20071;-65
2021/10/18 01:37:36;;;;;;;27.60;16.25;;;;;;;;;;5028032;28;20508;-64
2021/10/18 01:40:10;;;;;;;24.58;15.75;;;;;;;;;;5019519;28;20056;-64
2021/10/18 01:42:37;;;;;;;26.42;15.48;;;;;;;;;;5022874;28;20049;-64
2021/10/18 01:45:07;;;;;;;27.52;15.65;;;;;;;;;;5032633;28;20143;-64
2021/10/18 01:47:33;;;;;;;29.60;15.20;;;;;;;;;;5021419;28;20047;-64
2021/10/18 01:50:00;;;;;;;28.63;16.20;;;;;;;;;;5034222;28;20049;-65
2021/10/18 01:52:26;;;;;;;33.30;16.05;;;;;;;;;;5024003;28;20053;-64
2021/10/18 01:54:52;;;;;;;26.67;16.85;;;;;;;;;;5035100;28;20051;-64
2021/10/18 01:57:19;;;;;;;29.75;16.95;;;;;;;;;;5019227;28;20055;-64
2021/10/18 01:59:45;;;;;;;28.90;16.83;;;;;;;;;;5034068;28;20057;-64
2021/10/18 02:02:11;;;;;;;28.40;15.80;;;;;;;;;;5025056;28;20496;-63
2021/10/18 02:04:53;;;;;;;29.35;17.52;;;;;;;;;;5028828;28;20127;-64
2021/10/18 02:07:20;;;;;;;33.45;17.05;;;;;;;;;;5036893;28;20049;-64
2021/10/18 02:09:46;;;;;;;23.25;14.55;;;;;;;;;;5014279;28;20045;-64
2021/10/18 02:12:12;;;;;;;31.27;17.00;;;;;;;;;;5028731;28;20051;-64
2021/10/18 02:14:39;;;;;;;28.08;15.88;;;;;;;;;;5032359;28;20037;-64
2021/10/18 02:17:05;;;;;;;28.00;14.98;;;;;;;;;;5043324;28;20091;-64
2021/10/18 02:19:31;;;;;;;28.25;15.60;;;;;;;;;;5038861;28;20045;-65
2021/10/18 02:21:58;;;;;;;29.23;17.33;;;;;;;;;;5019004;28;20080;-64
2021/10/18 02:24:24;;;;;;;27.83;15.95;;;;;;;;;;5032491;28;20251;-64
2021/10/18 02:26:50;;;;;;;27.90;15.15;;;;;;;;;;5030326;28;20509;-64
2021/10/18 02:29:17;;;;;;;27.40;16.40;;;;;;;;;;5035500;28;20045;-63
2021/10/18 02:31:43;;;;;;;26.95;16.73;;;;;;;;;;5020675;28;20504;-64
2021/10/18 02:34:09;;;;;;;29.42;16.67;;;;;;;;;;5041699;28;20473;-64
2021/10/18 02:36:36;;;;;;;24.33;14.63;;;;;;;;;;5034115;28;20372;-64
2021/10/18 02:39:02;;;;;;;25.58;16.13;;;;;;;;;;5026252;28;20056;-64
2021/10/18 02:41:28;;;;;;;23.52;15.13;;;;;;;;;;5028455;28;20045;-64
2021/10/18 02:43:54;;;;;;;32.85;16.92;;;;;;;;;;5036821;28;20064;-64
2021/10/18 02:46:21;;;;;;;28.25;16.27;;;;;;;;;;5034637;28;20508;-64
2021/10/18 02:48:47;;;;;;;28.85;16.33;;;;;;;;;;5036493;28;20132;-64
2021/10/18 02:51:13;;;;;;;29.08;16.38;;;;;;;;;;5032427;28;20053;-64
2021/10/18 02:53:40;;;;;;;27.75;16.50;;;;;;;;;;5043504;28;20524;-64
2021/10/18 02:56:07;;;;;;;25.63;15.43;;;;;;;;;;5034822;28;20228;-63
2021/10/18 02:58:33;;;;;;;25.90;15.27;;;;;;;;;;5046734;28;20585;-63
2021/10/18 03:01:00;;;;;;;27.02;15.93;;;;;;;;;;5019506;28;20088;-65
2021/10/18 03:03:26;;;;;;;25.90;14.88;;;;;;;;;;5040894;28;20777;-63
2021/10/18 03:05:53;;;;;;;26.92;16.02;;;;;;;;;;5023465;28;20055;-64
2021/10/18 03:08:19;;;;;;;29.52;15.88;;;;;;;;;;5040890;28;20070;-64
2021/10/18 03:10:45;;;;;;;25.33;15.95;;;;;;;;;;5029326;28;20054;-64
2021/10/18 03:13:14;;;;;;;28.05;16.60;;;;;;;;;;5038867;28;20481;-65
2021/10/18 03:15:40;;;;;;;26.95;16.58;;;;;;;;;;5046071;28;20138;-65
2021/10/18 03:18:07;;;;;;;25.35;16.38;;;;;;;;;;5033731;28;20052;-64
2021/10/18 03:20:33;;;;;;;27.55;16.00;;;;;;;;;;5039754;28;20060;-64
2021/10/18 03:22:59;;;;;;;28.38;16.23;;;;;;;;;;5035876;28;20769;-65
2021/10/18 03:25:26;;;;;;;30.08;16.67;;;;;;;;;;5050511;28;20049;-64
2021/10/18 03:27:52;;;;;;;27.40;15.35;;;;;;;;;;5043390;28;20056;-64
2021/10/18 03:30:18;;;;;;;24.83;15.73;;;;;;;;;;5034913;28;20056;-64
2021/10/18 03:32:44;;;;;;;27.90;16.42;;;;;;;;;;5035938;28;20263;-63
2021/10/18 03:35:11;;;;;;;26.60;16.02;;;;;;;;;;5023509;28;20498;-64
2021/10/18 03:37:37;;;;;;;27.10;15.85;;;;;;;;;;5044283;28;20286;-64
2021/10/18 03:40:04;;;;;;;28.02;16.17;;;;;;;;;;5026829;28;20057;-63
2021/10/18 03:42:30;;;;;;;29.05;16.33;;;;;;;;;;5039519;28;20049;-63
2021/10/18 03:44:57;;;;;;;27.65;16.73;;;;;;;;;;5037270;28;20056;-63
2021/10/18 03:47:23;;;;;;;28.48;16.40;;;;;;;;;;5033437;28;20498;-64
2021/10/18 03:49:49;;;;;;;24.65;15.20;;;;;;;;;;5037597;28;20049;-64
2021/10/18 03:52:17;;;;;;;24.65;15.88;;;;;;;;;;5038160;28;20573;-64
2021/10/18 03:54:44;;;;;;;26.38;15.75;;;;;;;;;;5037027;28;20060;-65
2021/10/18 03:57:10;;;;;;;24.83;16.08;;;;;;;;;;5037191;28;20056;-64
2021/10/18 03:59:37;;;;;;;28.85;16.15;;;;;;;;;;5021975;28;20490;-64
2021/10/18 04:02:04;;;;;;;26.42;15.50;;;;;;;;;;5042436;28;20067;-65
2021/10/18 04:04:31;;;;;;;29.42;15.90;;;;;;;;;;5029879;28;20060;-64
2021/10/18 04:06:57;;;;;;;27.38;15.90;;;;;;;;;;5041777;28;20658;-64
2021/10/18 04:09:24;;;;;;;27.17;16.08;;;;;;;;;;5024986;28;20054;-64
2021/10/18 04:11:50;;;;;;;27.30;16.10;;;;;;;;;;5029916;28;20493;-64
2021/10/18 04:14:16;;;;;;;28.65;15.68;;;;;;;;;;5031744;28;20061;-64
2021/10/18 04:16:43;;;;;;;28.20;16.33;;;;;;;;;;5028324;28;20049;-64
2021/10/18 04:19:09;;;;;;;24.90;15.00;;;;;;;;;;5034875;28;20049;-64
2021/10/18 04:21:36;;;;;;;25.15;16.08;;;;;;;;;;5034889;28;20064;-64
2021/10/18 04:24:02;;;;;;;27.10;16.35;;;;;;;;;;5035685;28;20144;-64
2021/10/18 04:26:29;;;;;;;28.63;15.50;;;;;;;;;;5022675;28;20407;-64
2021/10/18 04:28:56;;;;;;;33.25;16.67;;;;;;;;;;5035735;28;20053;-64
2021/10/18 04:31:28;;;;;;;28.13;17.23;;;;;;;;;;5040807;28;20049;-64
2021/10/18 04:33:56;;;;;;;31.40;16.85;;;;;;;;;;5033314;28;20052;-64
2021/10/18 04:36:23;;;;;;;28.70;17.13;;;;;;;;;;5032966;28;20051;-64
2021/10/18 04:38:50;;;;;;;26.88;16.33;;;;;;;;;;5033784;28;20059;-64
2021/10/18 04:41:16;;;;;;;35.65;16.38;;;;;;;;;;5019429;28;20049;-64
2021/10/18 04:43:42;;;;;;;28.50;15.82;;;;;;;;;;5035413;28;20052;-64
2021/10/18 04:46:09;;;;;;;26.98;15.82;;;;;;;;;;5040211;28;20378;-64
2021/10/18 04:48:35;;;;;;;30.35;15.95;;;;;;;;;;5043398;28;20401;-64
2021/10/18 04:51:02;;;;;;;27.73;16.90;;;;;;;;;;5033372;28;20044;-64
2021/10/18 04:53:28;;;;;;;30.65;15.55;;;;;;;;;;5035164;28;20048;-64
2021/10/18 04:55:54;;;;;;;25.00;15.13;;;;;;;;;;5020992;28;20530;-64
2021/10/18 04:58:21;;;;;;;30.25;15.52;;;;;;;;;;5025498;28;20049;-64
2021/10/18 05:00:49;;;;;;;30.02;16.98;;;;;;;;;;5029624;28;20052;-63
2021/10/18 05:03:16;;;;;;;31.52;18.00;;;;;;;;;;5037128;28;20076;-64
2021/10/18 05:05:42;;;;;;;35.33;20.20;;;;;;;;;;5038495;28;21001;-63
2021/10/18 05:08:10;;;;;;;35.25;18.65;;;;;;;;;;5023652;28;20045;-63
2021/10/18 05:10:38;;;;;;;34.63;18.33;;;;;;;;;;5027403;28;20049;-63
2021/10/18 05:13:05;;;;;;;31.27;17.85;;;;;;;;;;5032310;28;20052;-64
2021/10/18 05:15:31;;;;;;;30.27;17.30;;;;;;;;;;5034542;28;20497;-64
2021/10/18 05:17:58;;;;;;;28.38;16.55;;;;;;;;;;5033872;28;20611;-64
2021/10/18 05:20:24;;;;;;;28.65;16.42;;;;;;;;;;5031637;28;20056;-63
2021/10/18 05:22:50;;;;;;;26.42;16.48;;;;;;;;;;5033920;28;20045;-66
2021/10/18 05:25:17;;;;;;;32.53;16.63;;;;;;;;;;5018805;28;20128;-64
2021/10/18 05:27:43;;;;;;;26.58;15.82;;;;;;;;;;5040905;28;20489;-64
2021/10/18 05:30:10;;;;;;;26.50;15.55;;;;;;;;;;5027547;28;20045;-64
2021/10/18 05:32:37;;;;;;;25.48;14.63;;;;;;;;;;5044016;28;20790;-64
2021/10/18 05:35:04;;;;;;;29.52;16.58;;;;;;;;;;5017396;28;20055;-64
2021/10/18 05:37:30;;;;;;;31.90;16.60;;;;;;;;;;5037974;28;20056;-64
2021/10/18 05:39:57;;;;;;;28.90;15.82;;;;;;;;;;5029119;28;20459;-64
2021/10/18 05:42:23;;;;;;;27.08;16.10;;;;;;;;;;5038813;28;20145;-64
2021/10/18 05:44:49;;;;;;;27.20;15.48;;;;;;;;;;5047779;28;20056;-64
2021/10/18 05:47:16;;;;;;;29.75;17.02;;;;;;;;;;5039132;28;20053;-63
2021/10/18 05:49:42;;;;;;;29.90;17.27;;;;;;;;;;5031319;28;20525;-63
2021/10/18 05:52:08;;;;;;;30.42;17.63;;;;;;;;;;5039800;28;20048;-64
2021/10/18 05:54:35;;;;;;;34.75;17.33;;;;;;;;;;5031777;28;20064;-64
2021/10/18 05:57:17;;;;;;;40.95;22.83;;;;;;;;;;5047428;28;20143;-63
2021/10/18 05:59:43;;;;;;;54.03;30.58;;;;;;;;;;5031729;28;20045;-64
2021/10/18 06:02:10;;;;;;;50.40;27.08;;;;;;;;;;5039451;28;20052;-64
2021/10/18 06:04:42;;;;;;;48.95;25.00;;;;;;;;;;5022138;28;20701;-64
2021/10/18 06:07:10;;;;;;;45.38;23.48;;;;;;;;;;5040541;28;20044;-64
2021/10/18 06:09:36;;;;;;;48.17;25.67;;;;;;;;;;5037292;28;20052;-64
2021/10/18 06:12:02;;;;;;;42.92;21.67;;;;;;;;;;5044394;28;20060;-64
2021/10/18 06:14:29;;;;;;;41.30;24.23;;;;;;;;;;5035207;28;20498;-64
2021/10/18 06:16:55;;;;;;;43.10;21.50;;;;;;;;;;5013835;28;20051;-63
2021/10/18 06:19:22;;;;;;;42.90;22.17;;;;;;;;;;5038976;28;20052;-64
2021/10/18 06:21:48;;;;;;;42.78;22.60;;;;;;;;;;5036508;28;20131;-64
2021/10/18 06:24:14;;;;;;;41.47;22.42;;;;;;;;;;5028174;28;20053;-64
2021/10/18 06:26:40;;;;;;;43.65;21.88;;;;;;;;;;5037809;28;20055;-65
2021/10/18 06:29:07;;;;;;;36.83;20.58;;;;;;;;;;5021641;28;20491;-63
2021/10/18 06:31:33;;;;;;;38.17;20.27;;;;;;;;;;5038171;28;20132;-64
2021/10/18 06:33:59;;;;;;;36.13;20.20;;;;;;;;;;5029455;28;20057;-66
2021/10/18 06:36:26;;;;;;;47.00;22.60;;;;;;;;;;5043725;28;20128;-64
2021/10/18 06:38:52;;;;;;;41.13;20.95;;;;;;;;;;5023867;28;20145;-64
2021/10/18 06:41:19;;;;;;;36.97;20.92;;;;;;;;;;5041916;28;20072;-64
2021/10/18 06:43:45;;;;;;;42.88;20.23;;;;;;;;;;5037599;28;20060;-65
2021/10/18 06:46:11;;;;;;;35.65;21.05;;;;;;;;;;5031863;28;20266;-64
2021/10/18 06:48:37;;;;;;;42.45;22.25;;;;;;;;;;5033140;28;20519;-64
2021/10/18 06:51:04;;;;;;;36.35;20.63;;;;;;;;;;5030104;28;20079;-64
2021/10/18 06:53:33;;;;;;;42.13;21.75;;;;;;;;;;5037633;28;20049;-64
2021/10/18 06:56:02;;;;;;;41.88;21.92;;;;;;;;;;5031729;28;20482;-64
2021/10/18 06:58:29;;;;;;;43.53;21.10;;;;;;;;;;5017960;28;20481;-64
2021/10/18 07:00:55;;;;;;;39.13;20.70;;;;;;;;;;5038794;28;20593;-65
2021/10/18 07:03:22;;;;;;;38.63;22.60;;;;;;;;;;5030099;28;20053;-64
2021/10/18 07:05:49;;;;;;;38.47;21.58;;;;;;;;;;5035088;28;20049;-64
2021/10/18 07:08:18;;;;;;;40.20;21.95;;;;;;;;;;5032574;28;20097;-65
2021/10/18 07:10:45;;;;;;;41.78;22.50;;;;;;;;;;5039860;28;20044;-64
2021/10/18 07:13:12;;;;;;;35.78;19.55;;;;;;;;;;5035510;28;20036;-64
2021/10/18 07:15:38;;;;;;;43.25;22.45;;;;;;;;;;5045585;28;20068;-64
2021/10/18 07:18:08;;;;;;;40.42;20.95;;;;;;;;;;5039066;28;20580;-64
2021/10/18 07:20:35;;;;;;;38.22;19.75;;;;;;;;;;5042829;28;20063;-64
2021/10/18 07:23:06;;;;;;;41.08;21.60;;;;;;;;;;5031730;28;20596;-64
2021/10/18 07:25:32;;;;;;;42.78;21.48;;;;;;;;;;5033209;28;20044;-64
2021/10/18 07:27:59;;;;;;;42.38;20.15;;;;;;;;;;5031162;28;20049;-64
2021/10/18 07:30:25;;;;;;;38.88;18.77;;;;;;;;;;5035758;28;20136;-65
2021/10/18 07:32:52;;;;;;;35.72;18.77;;;;;;;;;;5046274;28;20116;-64
2021/10/18 07:35:20;;;;;;;37.10;19.05;;;;;;;;;;5036084;28;20056;-65
2021/10/18 07:37:54;;;;;;;35.92;18.33;;;;;;;;;;5031689;28;20045;-64
2021/10/18 07:40:21;;;;;;;36.30;18.85;;;;;;;;;;5036280;28;20553;-64
2021/10/18 07:42:47;;;;;;;34.45;19.58;;;;;;;;;;5040403;28;20053;-64
2021/10/18 07:45:14;;;;;;;37.15;20.02;;;;;;;;;;5043076;28;20169;-64
2021/10/18 07:47:43;;;;;;;37.58;18.60;;;;;;;;;;5032646;28;20046;-64
2021/10/18 07:50:12;;;;;;;35.90;19.17;;;;;;;;;;5026230;28;20045;-64
2021/10/18 07:52:39;;;;;;;36.38;19.88;;;;;;;;;;5034046;28;20049;-65
2021/10/18 07:55:12;;;;;;;30.02;17.40;;;;;;;;;;5035234;28;20072;-64
2021/10/18 07:57:42;;;;;;;38.35;18.27;;;;;;;;;;5037940;28;20063;-64
2021/10/18 08:00:09;;;;;;;40.92;19.40;;;;;;;;;;5034146;28;20056;-64
2021/10/18 08:02:35;;;;;;;33.58;18.45;;;;;;;;;;5017473;28;20045;-64
2021/10/18 08:05:02;;;;;;;30.02;17.60;;;;;;;;;;5020145;28;20051;-64
2021/10/18 08:07:31;;;;;;;25.52;15.18;;;;;;;;;;5034951;28;20049;-64
2021/10/18 08:09:59;;;;;;;31.88;17.58;;;;;;;;;;5031173;28;20060;-64
2021/10/18 08:12:25;;;;;;;25.92;16.83;;;;;;;;;;5037538;28;20088;-64
2021/10/18 08:14:52;;;;;;;34.33;17.80;;;;;;;;;;5028371;28;20045;-63
2021/10/18 08:17:18;;;;;;;26.88;15.05;;;;;;;;;;5036355;28;20053;-64
2021/10/18 08:19:44;;;;;;;32.20;17.30;;;;;;;;;;5035964;28;20056;-65
2021/10/18 08:22:11;;;;;;;28.08;15.52;;;;;;;;;;5025552;28;20053;-64
2021/10/18 08:24:37;;;;;;;25.70;16.35;;;;;;;;;;5036051;28;20057;-64
2021/10/18 08:27:03;;;;;;;28.15;14.60;;;;;;;;;;5024700;28;20397;-64
2021/10/18 08:29:30;;;;;;;27.15;15.75;;;;;;;;;;5035153;28;20075;-64
2021/10/18 08:31:56;;;;;;;40.22;17.00;;;;;;;;;;5030236;28;20088;-64
2021/10/18 08:34:22;;;;;;;25.42;14.88;;;;;;;;;;5030283;28;20056;-64
2021/10/18 08:36:49;;;;;;;27.05;15.07;;;;;;;;;;5035049;28;20056;-64
2021/10/18 08:41:44;;;;;;;25.23;14.15;;;;;;;;;;5035165;28;20076;-64
2021/10/18 08:44:16;;;;;;;27.35;14.77;;;;;;;;;;5017960;28;20087;-64
2021/10/18 08:46:46;;;;;;;29.92;16.40;;;;;;;;;;5041445;28;20051;-64
2021/10/18 08:49:12;;;;;;;27.02;15.07;;;;;;;;;;5048806;28;20048;-64
2021/10/18 08:51:38;;;;;;;29.80;16.02;;;;;;;;;;5035086;28;20041;-64
2021/10/18 08:54:07;;;;;;;31.33;15.70;;;;;;;;;;5039664;28;20056;-64
2021/10/18 08:56:50;;;;;;;27.17;14.13;;;;;;;;;;5027560;28;20049;-64
2021/10/18 08:59:16;;;;;;;28.60;14.25;;;;;;;;;;5038426;28;20056;-64
2021/10/18 09:01:44;;;;;;;26.17;14.27;;;;;;;;;;5033516;28;20226;-64
2021/10/18 09:04:25;;;;;;;28.05;15.15;;;;;;;;;;5042586;28;20060;-64
2021/10/18 09:06:52;;;;;;;31.00;14.18;;;;;;;;;;5030078;28;20053;-65
2021/10/18 09:09:23;;;;;;;27.00;13.55;;;;;;;;;;5044260;28;20052;-65
2021/10/18 09:11:51;;;;;;;31.17;15.85;;;;;;;;;;5041072;28;20805;-64
2021/10/18 09:14:17;;;;;;;27.60;15.27;;;;;;;;;;5032622;28;20183;-64
2021/10/18 09:16:44;;;;;;;25.08;14.48;;;;;;;;;;5036953;28;20509;-64
2021/10/18 09:19:11;;;;;;;28.70;14.90;;;;;;;;;;5029367;28;20084;-65
2021/10/18 09:21:37;;;;;;;26.92;14.55;;;;;;;;;;5039514;28;20098;-64
2021/10/18 09:24:04;;;;;;;25.98;14.35;;;;;;;;;;5031489;28;20059;-65
2021/10/18 09:26:32;;;;;;;25.92;14.98;;;;;;;;;;5035502;28;20049;-65
2021/10/18 09:29:12;;;;;;;24.90;14.85;;;;;;;;;;5044655;28;20056;-65
2021/10/18 09:31:39;;;;;;;25.33;14.90;;;;;;;;;;5031112;28;20056;-65
2021/10/18 09:34:13;;;;;;;27.05;15.20;;;;;;;;;;5046670;28;20505;-65
2021/10/18 09:36:41;;;;;;;27.40;15.15;;;;;;;;;;5032680;28;20044;-64
2021/10/18 09:39:11;;;;;;;26.92;14.55;;;;;;;;;;5045544;28;20041;-64
2021/10/18 09:41:41;;;;;;;27.50;14.20;;;;;;;;;;5019272;28;20045;-64
2021/10/18 09:44:15;;;;;;;29.60;14.98;;;;;;;;;;5041808;28;20081;-65
2021/10/18 09:47:02;;;;;;;29.30;14.82;;;;;;;;;;5033636;28;20054;-65
2021/10/18 10:51:02;;;;;;;26.08;16.55;;;;;;;;;;5024773;28;20049;-65
2021/10/18 10:53:32;;;;;;;23.10;13.85;;;;;;;;;;5033716;28;20421;-66
2021/10/18 10:56:18;;;;;;;27.23;16.20;;;;;;;;;;5030241;28;20080;-65
2021/10/18 10:58:52;;;;;;;32.10;16.80;;;;;;;;;;5045618;28;20060;-65
2021/10/18 11:01:37;;;;;;;32.40;17.85;;;;;;;;;;5026348;28;20053;-65
2021/10/18 11:04:33;;;;;;;27.05;16.48;;;;;;;;;;5039684;28;20143;-64
2021/10/18 11:07:00;;;;;;;27.90;16.17;;;;;;;;;;5019942;28;20053;-65
2021/10/18 11:09:44;;;;;;;28.40;16.50;;;;;;;;;;5044111;28;20421;-65
2021/10/18 11:12:18;;;;;;;29.13;16.40;;;;;;;;;;5045779;28;20049;-65
2021/10/18 11:14:50;;;;;;;33.40;16.35;;;;;;;;;;5045100;28;20070;-65
2021/10/18 11:17:16;;;;;;;30.38;17.27;;;;;;;;;;5044083;28;20068;-65
2021/10/18 11:19:50;;;;;;;31.08;17.35;;;;;;;;;;5030688;28;20421;-65
2021/10/18 11:22:23;;;;;;;28.88;16.80;;;;;;;;;;5043154;28;20634;-65
2021/10/18 11:24:49;;;;;;;32.50;17.52;;;;;;;;;;5035974;28;20059;-65
2021/10/18 11:27:22;;;;;;;26.20;15.73;;;;;;;;;;5042399;28;20049;-65
2021/10/18 11:29:54;;;;;;;28.10;16.55;;;;;;;;;;5038689;28;21548;-65
2021/10/18 11:32:20;;;;;;;27.38;15.90;;;;;;;;;;5031312;28;20044;-65
2021/10/18 11:34:46;;;;;;;32.60;16.25;;;;;;;;;;5042025;28;20045;-65
2021/10/18 11:37:13;;;;;;;34.03;17.27;;;;;;;;;;5020602;28;20054;-65
2021/10/18 11:39:39;;;;;;;31.38;16.73;;;;;;;;;;5043688;28;20413;-65
2021/10/18 11:42:05;;;;;;;30.75;16.30;;;;;;;;;;5033428;28;20048;-65
2021/10/18 11:44:49;;;;;;;26.30;15.65;;;;;;;;;;5045747;28;20131;-65
2021/10/18 11:47:21;;;;;;;27.85;16.70;;;;;;;;;;5025139;28;20055;-65
2021/10/18 11:50:03;;;;;;;29.73;16.70;;;;;;;;;;5041613;28;20490;-66
2021/10/18 11:52:30;;;;;;;32.20;16.58;;;;;;;;;;5034627;28;20045;-66
2021/10/18 11:54:56;;;;;;;31.40;18.13;;;;;;;;;;5040390;28;20457;-65
2021/10/18 11:57:23;;;;;;;25.38;14.90;;;;;;;;;;5035254;28;20044;-65
2021/10/18 11:59:50;;;;;;;27.08;15.88;;;;;;;;;;5033533;28;20099;-65
2021/10/18 12:02:19;;;;;;;28.58;15.13;;;;;;;;;;5034958;28;20517;-65
2021/10/18 12:04:56;;;;;;;32.05;16.85;;;;;;;;;;5035167;28;20458;-65
2021/10/18 12:07:38;;;;;;;34.40;17.00;;;;;;;;;;5028531;28;20072;-65
2021/10/18 12:10:11;;;;;;;27.75;16.83;;;;;;;;;;5028792;28;20057;-65
2021/10/18 12:12:37;;;;;;;25.75;16.15;;;;;;;;;;5037852;28;20454;-65
2021/10/18 12:15:04;;;;;;;29.75;15.25;;;;;;;;;;5032807;28;20053;-66
2021/10/18 12:17:32;;;;;;;29.80;16.17;;;;;;;;;;5031840;28;20433;-66
2021/10/18 12:20:00;;;;;;;34.35;17.00;;;;;;;;;;5039865;28;20057;-66
2021/10/18 12:22:27;;;;;;;25.70;14.68;;;;;;;;;;5036162;28;20049;-65
2021/10/18 12:25:00;;;;;;;25.67;15.80;;;;;;;;;;5043745;28;20083;-65
2021/10/18 12:27:26;;;;;;;28.40;16.30;;;;;;;;;;5033077;28;20041;-65
2021/10/18 12:29:53;;;;;;;34.22;14.93;;;;;;;;;;5034473;28;20608;-65
2021/10/18 12:32:19;;;;;;;27.52;14.98;;;;;;;;;;5040428;28;20049;-65
2021/10/18 12:34:45;;;;;;;28.92;14.50;;;;;;;;;;5039399;28;20064;-66
2021/10/18 12:37:12;;;;;;;26.67;15.02;;;;;;;;;;5055714;28;20045;-65
2021/10/18 12:39:39;;;;;;;23.70;14.00;;;;;;;;;;5039196;28;20148;-65
2021/10/18 12:42:07;;;;;;;24.30;13.02;;;;;;;;;;5041826;28;20057;-65
2021/10/18 12:44:35;;;;;;;26.10;13.30;;;;;;;;;;5034890;28;20053;-65
2021/10/18 12:47:08;;;;;;;22.90;13.43;;;;;;;;;;5031017;28;20064;-65
2021/10/18 12:49:34;;;;;;;28.88;15.13;;;;;;;;;;5042767;28;20049;-65
2021/10/18 12:52:02;;;;;;;26.48;14.52;;;;;;;;;;5034782;28;20044;-65
2021/10/18 12:54:38;;;;;;;23.98;13.00;;;;;;;;;;5035339;28;20411;-65
2021/10/18 12:57:14;;;;;;;30.42;15.80;;;;;;;;;;5033628;28;20053;-65
2021/10/18 13:00:02;;;;;;;25.50;14.00;;;;;;;;;;5037135;28;20099;-65
2021/10/18 13:02:30;;;;;;;26.05;13.27;;;;;;;;;;5023429;28;20063;-65
2021/10/18 13:04:59;;;;;;;25.38;13.32;;;;;;;;;;5033448;28;20052;-65
2021/10/18 13:07:25;;;;;;;23.67;14.18;;;;;;;;;;5023374;28;20446;-65
2021/10/18 13:09:52;;;;;;;31.23;14.48;;;;;;;;;;5036585;28;20049;-65
2021/10/18 13:12:18;;;;;;;31.00;14.18;;;;;;;;;;5041137;28;20346;-65
2021/10/18 13:14:44;;;;;;;32.20;15.23;;;;;;;;;;5031054;28;20045;-65
2021/10/18 13:17:11;;;;;;;24.52;13.68;;;;;;;;;;5032051;28;20041;-65
2021/10/18 13:19:37;;;;;;;25.98;15.25;;;;;;;;;;5025614;28;21125;-65
2021/10/18 13:22:04;;;;;;;28.88;14.05;;;;;;;;;;5030568;28;20048;-65
2021/10/18 13:24:30;;;;;;;26.88;13.75;;;;;;;;;;5031366;28;20037;-65
2021/10/18 13:26:57;;;;;;;27.38;14.25;;;;;;;;;;5038968;28;20064;-65
2021/10/18 13:29:24;;;;;;;25.70;14.57;;;;;;;;;;5036796;28;20041;-65
2021/10/18 13:31:50;;;;;;;26.30;14.65;;;;;;;;;;5021914;28;20041;-66
2021/10/18 13:34:16;;;;;;;28.83;13.98;;;;;;;;;;5037154;28;20049;-66
2021/10/18 13:36:43;;;;;;;23.33;13.90;;;;;;;;;;5028529;28;20053;-65
2021/10/18 13:39:09;;;;;;;23.45;13.02;;;;;;;;;;5040328;28;20056;-65
2021/10/18 13:41:54;;;;;;;21.88;12.70;;;;;;;;;;5023069;28;20127;-66
2021/10/18 13:44:20;;;;;;;24.05;13.35;;;;;;;;;;5039456;28;20049;-66
2021/10/18 13:46:47;;;;;;;28.80;14.07;;;;;;;;;;5029425;28;20455;-65
2021/10/18 13:49:13;;;;;;;25.73;14.70;;;;;;;;;;5033039;28;20056;-65
2021/10/18 13:51:42;;;;;;;30.42;13.77;;;;;;;;;;5040082;28;20048;-65
2021/10/18 13:54:09;;;;;;;20.13;10.65;;;;;;;;;;5033787;28;20163;-65
2021/10/18 13:56:37;;;;;;;23.75;12.60;;;;;;;;;;5041876;28;20044;-65
2021/10/18 13:59:04;;;;;;;23.25;11.77;;;;;;;;;;5027478;28;20041;-65
2021/10/18 14:01:30;;;;;;;27.08;13.93;;;;;;;;;;5031508;28;20084;-65
2021/10/18 14:03:57;;;;;;;24.48;14.38;;;;;;;;;;5043060;28;20080;-65
2021/10/18 14:06:24;;;;;;;22.65;13.20;;;;;;;;;;5030858;28;20045;-65
2021/10/18 14:08:50;;;;;;;26.10;13.80;;;;;;;;;;5041491;28;20049;-65
2021/10/18 14:11:18;;;;;;;26.65;13.70;;;;;;;;;;5022419;28;20045;-65
2021/10/18 14:13:45;;;;;;;29.23;14.30;;;;;;;;;;5036802;28;20504;-65
2021/10/18 14:16:11;;;;;;;29.35;14.45;;;;;;;;;;5025841;28;20053;-65
2021/10/18 14:18:37;;;;;;;26.52;14.82;;;;;;;;;;5044575;28;20048;-65
2021/10/18 14:21:05;;;;;;;24.98;11.60;;;;;;;;;;5029589;28;20049;-66
2021/10/18 14:23:32;;;;;;;23.98;14.07;;;;;;;;;;5018537;28;20543;-66
2021/10/18 14:25:59;;;;;;;22.92;12.68;;;;;;;;;;5027284;28;20259;-66
2021/10/18 14:28:26;;;;;;;24.85;12.77;;;;;;;;;;5031520;28;20481;-66
2021/10/18 14:30:52;;;;;;;26.52;13.80;;;;;;;;;;5034364;28;20055;-66
2021/10/18 14:33:19;;;;;;;24.48;12.93;;;;;;;;;;5034658;28;20076;-65
2021/10/18 14:35:45;;;;;;;26.35;13.80;;;;;;;;;;5027015;28;20052;-65
2021/10/18 14:38:12;;;;;;;19.05;11.93;;;;;;;;;;5044861;28;20045;-66
2021/10/18 14:40:38;;;;;;;26.15;13.68;;;;;;;;;;5026151;28;20059;-65
2021/10/18 14:43:05;;;;;;;21.88;12.40;;;;;;;;;;5038406;28;21160;-66
2021/10/18 14:45:32;;;;;;;28.27;14.70;;;;;;;;;;5025147;28;20052;-66
2021/10/18 14:48:00;;;;;;;25.45;13.55;;;;;;;;;;5043297;28;20072;-66
2021/10/18 14:50:26;;;;;;;19.67;11.68;;;;;;;;;;5033469;28;20072;-66
2021/10/18 14:52:52;;;;;;;24.88;12.52;;;;;;;;;;5041575;28;20045;-65
2021/10/18 14:55:20;;;;;;;23.58;12.43;;;;;;;;;;5022969;28;20061;-65
2021/10/18 14:57:46;;;;;;;21.42;12.32;;;;;;;;;;5016417;28;20057;-66
2021/10/18 15:00:14;;;;;;;19.92;11.50;;;;;;;;;;5034236;28;20051;-66
2021/10/18 15:02:44;;;;;;;26.48;13.90;;;;;;;;;;5033699;28;20041;-65
2021/10/18 15:05:11;;;;;;;22.20;12.30;;;;;;;;;;5042221;28;20060;-65
2021/10/18 15:07:37;;;;;;;25.45;13.70;;;;;;;;;;5036130;28;20049;-65
2021/10/18 15:10:04;;;;;;;24.67;12.75;;;;;;;;;;5051624;28;20051;-65
2021/10/18 15:12:30;;;;;;;25.63;12.98;;;;;;;;;;5046250;28;20037;-65
2021/10/18 15:14:56;;;;;;;21.08;11.48;;;;;;;;;;5039486;28;20049;-65
2021/10/18 15:17:23;;;;;;;21.48;11.32;;;;;;;;;;5046595;28;20041;-66
2021/10/18 15:19:49;;;;;;;26.63;12.52;;;;;;;;;;5022344;28;20056;-65
2021/10/18 15:22:17;;;;;;;24.58;12.27;;;;;;;;;;5035815;28;20129;-65
2021/10/18 15:24:44;;;;;;;21.15;11.60;;;;;;;;;;5035032;28;20053;-65